createdAt,value
2019-03-19T00:00:15.238Z,56.70
2019-03-19T00:02:43.580Z,56.70
2019-03-19T00:05:11.866Z,56.70
2019-03-19T00:07:40.147Z,56.70
2019-03-19T00:10:09.270Z,56.60
2019-03-19T00:12:37.557Z,56.90
2019-03-19T00:15:25.371Z,56.60
2019-03-19T00:17:53.650Z,56.60
2019-03-19T00:20:21.963Z,56.60
2019-03-19T00:22:50.316Z,56.60
2019-03-19T00:25:29.129Z,56.50
2019-03-19T00:27:48.625Z,56.50
2019-03-19T00:30:17.876Z,56.50
2019-03-19T00:32:46.231Z,56.50
2019-03-19T00:35:14.567Z,56.60
2019-03-19T00:37:42.843Z,56.60
2019-03-19T00:40:13.451Z,56.50
2019-03-19T00:42:41.809Z,56.50
2019-03-19T00:45:11.535Z,56.50
2019-03-19T00:47:40.155Z,56.70
2019-03-19T00:50:10.565Z,56.50
2019-03-19T00:52:38.847Z,56.50
2019-03-19T00:55:08.549Z,56.40
2019-03-19T00:57:36.821Z,56.40
2019-03-19T01:00:12.971Z,56.40
2019-03-19T01:02:41.288Z,56.40
2019-03-19T01:05:09.705Z,56.40
2019-03-19T01:07:38.093Z,56.30
2019-03-19T01:10:09.847Z,56.30
2019-03-19T01:12:38.145Z,56.30
2019-03-19T01:15:09.162Z,56.30
2019-03-19T01:17:37.469Z,56.20
2019-03-19T01:20:08.832Z,56.20
2019-03-19T01:22:37.208Z,56.20
2019-03-19T01:25:07.624Z,56.10
2019-03-19T01:27:35.912Z,56.10
2019-03-19T01:30:07.238Z,56.10
2019-03-19T01:32:35.696Z,56.00
2019-03-19T01:35:05.428Z,56.00
2019-03-19T01:37:33.714Z,56.10
2019-03-19T01:40:02.095Z,56.00
2019-03-19T01:42:30.382Z,56.00
2019-03-19T01:44:58.817Z,56.00
2019-03-19T01:47:27.172Z,56.00
2019-03-19T01:49:55.496Z,56.00
2019-03-19T01:52:23.847Z,55.90
2019-03-19T01:54:52.152Z,55.90
2019-03-19T01:57:20.446Z,56.00
2019-03-19T01:59:48.739Z,55.90
2019-03-19T02:02:17.101Z,55.90
2019-03-19T02:04:45.417Z,55.90
2019-03-19T02:07:13.777Z,55.90
2019-03-19T02:09:42.154Z,55.80
2019-03-19T02:12:10.545Z,55.80
2019-03-19T02:14:38.861Z,55.80
2019-03-19T02:17:07.209Z,55.80
2019-03-19T02:19:35.589Z,55.80
2019-03-19T02:22:03.901Z,55.70
2019-03-19T02:24:32.256Z,55.70
2019-03-19T02:27:00.624Z,55.70
2019-03-19T02:29:28.987Z,55.70
2019-03-19T02:31:57.382Z,55.70
2019-03-19T02:34:25.742Z,55.70
2019-03-19T02:36:54.026Z,55.70
2019-03-19T02:39:22.331Z,55.70
2019-03-19T02:41:50.675Z,55.70
2019-03-19T02:44:18.982Z,55.60
2019-03-19T02:46:47.334Z,55.70
2019-03-19T02:49:15.633Z,55.70
2019-03-19T02:51:43.993Z,55.60
2019-03-19T02:54:12.286Z,55.50
2019-03-19T02:56:40.593Z,55.50
2019-03-19T02:59:09.055Z,55.60
2019-03-19T03:01:37.406Z,55.60
2019-03-19T03:04:05.705Z,55.50
2019-03-19T03:06:34.089Z,55.50
2019-03-19T03:09:02.439Z,55.50
2019-03-19T03:11:30.808Z,55.50
2019-03-19T03:13:59.091Z,55.50
2019-03-19T03:16:27.481Z,55.50
2019-03-19T03:18:55.835Z,55.50
2019-03-19T03:21:24.204Z,55.50
2019-03-19T03:23:52.493Z,55.50
2019-03-19T03:26:20.797Z,55.50
2019-03-19T03:28:49.181Z,55.40
2019-03-19T03:31:17.618Z,55.40
2019-03-19T03:33:45.899Z,55.40
2019-03-19T03:36:14.276Z,55.40
2019-03-19T03:38:42.628Z,55.40
2019-03-19T03:41:10.939Z,55.50
2019-03-19T03:43:39.299Z,55.40
2019-03-19T03:46:07.678Z,55.50
2019-03-19T03:48:36.037Z,55.50
2019-03-19T03:51:04.337Z,55.50
2019-03-19T03:53:32.637Z,55.40
2019-03-19T03:56:01.012Z,55.30
2019-03-19T03:58:29.366Z,55.30
2019-03-19T04:00:57.747Z,55.30
2019-03-19T04:03:26.090Z,55.40
2019-03-19T04:05:54.375Z,55.30
2019-03-19T04:08:22.652Z,54.80
2019-03-19T04:10:51.019Z,55.30
2019-03-19T04:13:19.366Z,55.30
2019-03-19T04:15:47.744Z,55.30
2019-03-19T04:18:16.101Z,55.20
2019-03-19T04:20:44.390Z,55.30
2019-03-19T04:23:12.669Z,55.20
2019-03-19T04:25:40.973Z,55.20
2019-03-19T04:28:09.310Z,55.20
2019-03-19T04:30:37.600Z,55.20
2019-03-19T04:33:05.946Z,55.10
2019-03-19T04:35:34.254Z,55.10
2019-03-19T04:38:02.590Z,55.10
2019-03-19T04:40:30.889Z,55.10
2019-03-19T04:42:59.163Z,55.10
2019-03-19T04:45:27.451Z,55.00
2019-03-19T04:47:55.724Z,55.10
2019-03-19T04:50:24.071Z,55.00
2019-03-19T04:52:52.370Z,55.10
2019-03-19T04:55:20.643Z,55.00
2019-03-19T04:57:49.003Z,54.90
2019-03-19T05:00:18.120Z,55.00
2019-03-19T05:02:46.481Z,55.10
2019-03-19T05:05:14.825Z,55.00
2019-03-19T05:07:43.236Z,55.00
2019-03-19T05:10:19.001Z,54.90
2019-03-19T05:12:47.384Z,55.00
2019-03-19T05:15:15.721Z,54.90
2019-03-19T05:17:44.009Z,54.90
2019-03-19T05:20:13.191Z,54.90
2019-03-19T05:22:41.475Z,54.90
2019-03-19T05:25:10.393Z,54.90
2019-03-19T05:27:38.827Z,54.90
2019-03-19T05:30:17.606Z,54.90
2019-03-19T05:32:45.906Z,54.90
2019-03-19T05:35:14.264Z,54.80
2019-03-19T05:37:42.617Z,54.90
2019-03-19T05:40:12.339Z,55.00
2019-03-19T05:42:40.711Z,55.10
2019-03-19T05:45:10.904Z,55.10
2019-03-19T05:47:40.446Z,55.20
2019-03-19T05:50:11.622Z,55.20
2019-03-19T05:52:39.903Z,55.20
2019-03-19T05:55:08.790Z,55.20
2019-03-19T05:57:48.384Z,55.80
2019-03-19T06:00:24.972Z,55.30
2019-03-19T06:02:53.272Z,55.40
2019-03-19T06:05:21.696Z,55.40
2019-03-19T06:07:50.127Z,55.40
2019-03-19T06:10:18.478Z,55.50
2019-03-19T06:12:46.766Z,55.40
2019-03-19T06:15:15.905Z,55.40
2019-03-19T06:17:44.293Z,55.60
2019-03-19T06:20:13.774Z,55.60
2019-03-19T06:22:42.067Z,55.80
2019-03-19T06:25:11.505Z,55.90
2019-03-19T06:27:39.869Z,56.20
2019-03-19T06:30:22.655Z,56.40
2019-03-19T06:32:50.941Z,56.50
2019-03-19T06:35:19.213Z,56.60
2019-03-19T06:37:47.504Z,56.70
2019-03-19T06:40:17.978Z,56.60
2019-03-19T06:42:46.275Z,56.60
2019-03-19T06:45:16.555Z,56.80
2019-03-19T06:47:44.901Z,56.90
2019-03-19T06:50:15.345Z,56.90
2019-03-19T06:52:43.639Z,57.00
2019-03-19T06:55:13.052Z,57.00
2019-03-19T06:57:41.416Z,57.00
2019-03-19T07:00:24.759Z,57.00
2019-03-19T07:02:53.124Z,57.00
2019-03-19T07:05:21.816Z,56.90
2019-03-19T07:07:50.098Z,56.90
2019-03-19T07:10:19.119Z,56.80
2019-03-19T07:12:47.472Z,56.90
2019-03-19T07:15:16.873Z,56.90
2019-03-19T07:17:45.151Z,56.90
2019-03-19T07:20:15.947Z,57.00
2019-03-19T07:22:44.224Z,57.20
2019-03-19T07:25:12.506Z,57.40
2019-03-19T07:27:40.786Z,57.50
2019-03-19T07:30:12.408Z,57.70
2019-03-19T07:32:40.689Z,57.80
2019-03-19T07:35:09.004Z,57.90
2019-03-19T07:37:37.351Z,58.00
2019-03-19T07:40:08.982Z,58.10
2019-03-19T07:42:37.331Z,58.20
2019-03-19T07:45:09.176Z,58.30
2019-03-19T07:47:37.451Z,58.40
2019-03-19T07:50:09.141Z,58.90
2019-03-19T07:52:37.457Z,58.50
2019-03-19T07:55:05.851Z,58.60
2019-03-19T07:57:34.203Z,58.70
2019-03-19T08:00:02.821Z,58.80
2019-03-19T08:02:31.105Z,58.80
2019-03-19T08:04:59.379Z,58.90
2019-03-19T08:07:27.683Z,58.90
2019-03-19T08:09:55.963Z,59.00
2019-03-19T08:12:24.250Z,59.00
2019-03-19T08:14:52.522Z,59.00
2019-03-19T08:17:20.949Z,59.00
2019-03-19T08:19:49.364Z,59.10
2019-03-19T08:22:17.669Z,59.20
2019-03-19T08:24:45.944Z,59.20
2019-03-19T08:27:14.215Z,59.30
2019-03-19T08:29:42.512Z,59.30
2019-03-19T08:32:10.856Z,59.30
2019-03-19T08:34:39.142Z,59.30
2019-03-19T08:37:07.406Z,59.40
2019-03-19T08:39:36.628Z,59.40
2019-03-19T08:42:05.148Z,59.40
2019-03-19T08:44:33.436Z,59.40
2019-03-19T08:47:01.714Z,59.50
2019-03-19T08:49:30.009Z,59.50
2019-03-19T08:51:58.286Z,59.50
2019-03-19T08:54:26.569Z,59.50
2019-03-19T08:56:54.852Z,59.50
2019-03-19T08:59:23.122Z,59.50
2019-03-19T09:01:51.416Z,59.50
2019-03-19T09:04:19.689Z,59.50
2019-03-19T09:06:47.991Z,59.50
2019-03-19T09:09:16.333Z,59.50
2019-03-19T09:11:44.629Z,59.60
2019-03-19T09:14:12.899Z,59.60
2019-03-19T09:16:41.276Z,59.60
2019-03-19T09:19:09.547Z,59.50
2019-03-19T09:21:37.840Z,59.50
2019-03-19T09:24:06.109Z,59.60
2019-03-19T09:26:34.383Z,59.50
2019-03-19T09:29:02.669Z,59.60
2019-03-19T09:31:30.942Z,59.60
2019-03-19T09:33:59.233Z,59.60
2019-03-19T09:36:27.583Z,59.60
2019-03-19T09:38:55.875Z,59.60
2019-03-19T09:41:24.219Z,59.60
2019-03-19T09:43:53.558Z,59.60
2019-03-19T09:46:22.035Z,59.60
2019-03-19T09:48:50.387Z,59.60
2019-03-19T09:51:18.678Z,59.60
2019-03-19T09:53:46.951Z,59.60
2019-03-19T09:56:15.362Z,59.50
2019-03-19T09:58:43.708Z,59.50
2019-03-19T10:01:12.024Z,59.50
2019-03-19T10:03:40.362Z,59.50
2019-03-19T10:06:14.383Z,59.50
2019-03-19T10:08:38.650Z,59.50
2019-03-19T10:11:06.938Z,59.50
2019-03-19T10:13:35.211Z,59.50
2019-03-19T10:16:03.507Z,59.50
2019-03-19T10:18:31.785Z,59.50
2019-03-19T10:21:00.151Z,59.40
2019-03-19T10:23:28.417Z,59.40
2019-03-19T10:25:56.695Z,59.30
2019-03-19T10:28:24.990Z,59.30
2019-03-19T10:30:53.273Z,59.30
2019-03-19T10:33:21.637Z,59.20
2019-03-19T10:35:49.907Z,59.20
2019-03-19T10:38:18.207Z,59.20
2019-03-19T10:40:46.491Z,59.30
2019-03-19T10:43:14.847Z,59.20
2019-03-19T10:45:43.119Z,59.20
2019-03-19T10:48:11.442Z,59.20
2019-03-19T10:50:39.775Z,59.20
2019-03-19T10:53:08.058Z,59.10
2019-03-19T10:55:36.667Z,59.10
2019-03-19T10:58:11.032Z,59.20
2019-03-19T11:00:35.047Z,59.20
2019-03-19T11:03:03.323Z,59.20
2019-03-19T11:05:31.681Z,59.20
2019-03-19T11:07:59.959Z,59.10
2019-03-19T11:10:28.251Z,59.10
2019-03-19T11:12:56.526Z,59.10
2019-03-19T11:15:31.593Z,59.00
2019-03-19T11:17:59.718Z,59.00
2019-03-19T11:20:28.064Z,59.00
2019-03-19T11:22:56.361Z,59.00
2019-03-19T11:25:28.440Z,59.00
2019-03-19T11:27:56.807Z,59.00
2019-03-19T11:30:27.280Z,59.00
2019-03-19T11:32:55.578Z,59.00
2019-03-19T11:35:23.867Z,59.10
2019-03-19T11:37:52.232Z,59.10
2019-03-19T11:40:21.134Z,59.20
2019-03-19T11:42:49.734Z,59.10
2019-03-19T11:45:22.275Z,59.10
2019-03-19T11:47:50.550Z,59.00
2019-03-19T11:50:23.892Z,59.00
2019-03-19T11:52:52.175Z,58.90
2019-03-19T11:55:20.602Z,58.90
2019-03-19T11:57:48.948Z,58.90
2019-03-19T12:00:38.561Z,58.90
2019-03-19T12:03:12.682Z,58.90
2019-03-19T12:05:36.887Z,59.00
2019-03-19T12:08:05.696Z,59.50
2019-03-19T12:10:33.993Z,59.00
2019-03-19T12:13:02.335Z,59.00
2019-03-19T12:15:30.607Z,59.10
2019-03-19T12:17:58.907Z,59.10
2019-03-19T12:20:27.171Z,59.00
2019-03-19T12:22:55.501Z,59.10
2019-03-19T12:25:23.777Z,59.10
2019-03-19T12:27:52.067Z,59.60
2019-03-19T12:30:22.965Z,59.10
2019-03-19T12:32:51.415Z,59.10
2019-03-19T12:35:20.129Z,59.10
2019-03-19T12:37:48.494Z,59.10
2019-03-19T12:40:18.971Z,59.10
2019-03-19T12:42:47.274Z,59.10
2019-03-19T12:45:23.805Z,59.10
2019-03-19T12:47:52.175Z,59.10
2019-03-19T12:50:21.378Z,59.10
2019-03-19T12:52:49.711Z,59.10
2019-03-19T12:55:18.018Z,59.20
2019-03-19T12:57:46.418Z,59.20
2019-03-19T13:00:34.296Z,59.20
2019-03-19T13:02:58.051Z,59.20
2019-03-19T13:05:26.330Z,59.30
2019-03-19T13:07:54.693Z,59.20
2019-03-19T13:10:23.808Z,59.10
2019-03-19T13:12:52.176Z,59.20
2019-03-19T13:15:20.988Z,59.70
2019-03-19T13:17:49.274Z,59.20
2019-03-19T13:20:18.489Z,59.00
2019-03-19T13:22:46.790Z,58.90
2019-03-19T13:25:19.655Z,58.90
2019-03-19T13:27:47.952Z,58.90
2019-03-19T13:30:20.739Z,58.90
2019-03-19T13:32:49.110Z,58.80
2019-03-19T13:35:17.374Z,58.80
2019-03-19T13:37:45.674Z,58.80
2019-03-19T13:40:17.914Z,58.90
2019-03-19T13:42:46.278Z,59.00
2019-03-19T13:45:17.052Z,58.90
2019-03-19T13:47:45.357Z,58.90
2019-03-19T13:50:15.476Z,59.00
2019-03-19T13:52:43.767Z,58.90
2019-03-19T13:55:16.920Z,59.00
2019-03-19T13:57:45.281Z,59.40
2019-03-19T14:00:14.969Z,58.80
2019-03-19T14:02:43.505Z,58.80
2019-03-19T14:05:13.082Z,58.80
2019-03-19T14:07:41.439Z,58.80
2019-03-19T14:10:19.621Z,58.80
2019-03-19T14:12:47.941Z,58.80
2019-03-19T14:15:18.583Z,58.80
2019-03-19T14:17:46.882Z,58.70
2019-03-19T14:20:16.198Z,58.60
2019-03-19T14:22:45.441Z,58.70
2019-03-19T14:25:15.151Z,58.70
2019-03-19T14:27:43.604Z,58.60
2019-03-19T14:30:20.355Z,58.50
2019-03-19T14:32:48.692Z,59.00
2019-03-19T14:35:16.983Z,58.40
2019-03-19T14:37:45.321Z,58.40
2019-03-19T14:40:18.214Z,58.40
2019-03-19T14:42:46.558Z,58.40
2019-03-19T14:45:16.161Z,58.90
2019-03-19T14:47:44.503Z,58.40
2019-03-19T14:50:22.857Z,58.30
2019-03-19T14:52:51.140Z,58.30
2019-03-19T14:55:19.430Z,58.30
2019-03-19T14:57:47.704Z,58.40
2019-03-19T15:00:20.906Z,58.30
2019-03-19T15:02:49.254Z,58.20
2019-03-19T15:05:17.789Z,58.70
2019-03-19T15:07:46.071Z,58.20
2019-03-19T15:10:20.311Z,58.20
2019-03-19T15:12:48.585Z,58.10
2019-03-19T15:15:17.879Z,58.00
2019-03-19T15:17:46.171Z,58.10
2019-03-19T15:20:22.760Z,58.00
2019-03-19T15:22:51.111Z,58.50
2019-03-19T15:25:19.487Z,58.00
2019-03-19T15:27:47.859Z,58.00
2019-03-19T15:30:17.057Z,58.00
2019-03-19T15:32:45.626Z,58.00
2019-03-19T15:35:13.948Z,57.90
2019-03-19T15:37:42.293Z,58.00
2019-03-19T15:40:17.502Z,58.00
2019-03-19T15:42:45.777Z,58.00
2019-03-19T15:45:31.105Z,57.90
2019-03-19T15:47:59.465Z,57.90
2019-03-19T15:50:27.761Z,58.00
2019-03-19T15:52:56.034Z,58.00
2019-03-19T15:55:24.314Z,58.00
2019-03-19T15:57:52.586Z,58.00
2019-03-19T16:00:21.497Z,58.00
2019-03-19T16:02:49.873Z,58.00
2019-03-19T16:05:18.218Z,58.00
2019-03-19T16:07:46.510Z,58.00
2019-03-19T16:10:18.483Z,58.00
2019-03-19T16:12:46.772Z,58.00
2019-03-19T16:15:16.147Z,58.00
2019-03-19T16:17:44.436Z,58.10
2019-03-19T16:20:16.378Z,58.00
2019-03-19T16:22:44.658Z,58.00
2019-03-19T16:25:13.414Z,58.00
2019-03-19T16:27:41.683Z,58.00
2019-03-19T16:30:14.398Z,58.00
2019-03-19T16:32:42.748Z,58.00
2019-03-19T16:35:11.847Z,58.00
2019-03-19T16:37:40.119Z,58.30
2019-03-19T16:40:22.665Z,58.00
2019-03-19T16:42:50.935Z,58.00
2019-03-19T16:45:19.225Z,58.00
2019-03-19T16:47:47.500Z,58.00
2019-03-19T16:50:20.899Z,58.00
2019-03-19T16:52:49.243Z,58.00
2019-03-19T16:55:18.576Z,58.00
2019-03-19T16:57:46.850Z,57.90
2019-03-19T17:00:19.731Z,57.60
2019-03-19T17:02:48.003Z,57.50
2019-03-19T17:05:17.343Z,57.50
2019-03-19T17:07:46.607Z,57.70
2019-03-19T17:10:21.084Z,57.80
2019-03-19T17:12:49.536Z,57.80
2019-03-19T17:15:18.518Z,57.80
2019-03-19T17:17:47.098Z,57.80
2019-03-19T17:20:17.157Z,57.90
2019-03-19T17:22:46.379Z,58.10
2019-03-19T17:25:17.341Z,58.10
2019-03-19T17:27:45.702Z,58.10
2019-03-19T17:30:22.604Z,58.10
2019-03-19T17:32:50.893Z,58.30
2019-03-19T17:35:19.318Z,58.40
2019-03-19T17:37:47.645Z,58.60
2019-03-19T17:40:16.306Z,58.80
2019-03-19T17:42:44.889Z,58.90
2019-03-19T17:45:14.482Z,59.10
2019-03-19T17:47:42.756Z,59.20
2019-03-19T17:50:15.921Z,59.30
2019-03-19T17:52:44.480Z,59.60
2019-03-19T17:55:13.162Z,59.70
2019-03-19T17:57:41.519Z,59.70
2019-03-19T18:00:12.809Z,59.90
2019-03-19T18:02:41.103Z,60.10
2019-03-19T18:05:10.077Z,60.30
2019-03-19T18:07:38.413Z,60.60
2019-03-19T18:10:09.987Z,60.70
2019-03-19T18:12:38.271Z,61.20
2019-03-19T18:15:11.769Z,62.10
2019-03-19T18:17:40.055Z,62.50
2019-03-19T18:20:11.169Z,63.00
2019-03-19T18:22:39.473Z,63.70
2019-03-19T18:25:12.541Z,64.00
2019-03-19T18:27:40.807Z,64.40
2019-03-19T18:30:23.245Z,65.30
2019-03-19T18:32:51.613Z,65.70
2019-03-19T18:35:19.915Z,66.20
2019-03-19T18:37:49.915Z,66.70
2019-03-19T18:40:19.086Z,67.10
2019-03-19T18:43:06.946Z,67.50
2019-03-19T18:45:35.248Z,68.00
2019-03-19T18:48:05.612Z,68.20
2019-03-19T18:50:33.944Z,68.40
2019-03-19T18:53:02.314Z,68.60
2019-03-19T18:55:30.666Z,68.70
2019-03-19T18:57:59.027Z,68.90
2019-03-19T19:00:27.535Z,69.10
2019-03-19T19:02:55.940Z,69.20
2019-03-19T19:05:24.644Z,69.20
2019-03-19T19:07:53.000Z,69.20
2019-03-19T19:10:21.714Z,69.20
2019-03-19T19:12:50.231Z,69.40
2019-03-19T19:15:19.936Z,69.60
2019-03-19T19:17:48.300Z,69.70
2019-03-19T19:20:17.262Z,69.70
2019-03-19T19:22:45.566Z,69.90
2019-03-19T19:25:22.136Z,70.00
2019-03-19T19:27:51.315Z,69.90
2019-03-19T19:30:40.643Z,70.20
2019-03-19T19:33:08.914Z,70.20
2019-03-19T19:35:37.190Z,70.20
2019-03-19T19:38:06.055Z,70.50
2019-03-19T19:40:34.334Z,70.60
2019-03-19T19:43:02.625Z,70.70
2019-03-19T19:45:30.971Z,70.80
2019-03-19T19:47:59.271Z,70.80
2019-03-19T19:50:27.548Z,70.80
2019-03-19T19:52:55.893Z,70.70
2019-03-19T19:55:24.167Z,70.70
2019-03-19T19:57:52.443Z,70.80
2019-03-19T20:00:22.641Z,71.10
2019-03-19T20:02:51.007Z,72.00
2019-03-19T20:05:19.377Z,71.10
2019-03-19T20:07:47.684Z,71.20
2019-03-19T20:10:21.532Z,71.30
2019-03-19T20:12:49.873Z,71.30
2019-03-19T20:15:18.261Z,71.60
2019-03-19T20:17:46.553Z,71.70
2019-03-19T20:20:29.594Z,71.20
2019-03-19T20:22:57.871Z,72.10
2019-03-19T20:25:26.172Z,72.10
2019-03-19T20:27:54.583Z,72.20
2019-03-19T20:30:25.078Z,72.50
2019-03-19T20:32:53.362Z,72.50
2019-03-19T20:35:21.664Z,72.50
2019-03-19T20:37:49.957Z,72.80
2019-03-19T20:40:18.311Z,72.90
2019-03-19T20:42:46.602Z,72.80
2019-03-19T20:45:20.250Z,72.90
2019-03-19T20:47:48.541Z,73.00
2019-03-19T20:50:19.712Z,73.10
2019-03-19T20:52:48.002Z,73.30
2019-03-19T20:55:16.286Z,73.50
2019-03-19T20:57:44.633Z,73.40
2019-03-19T21:00:16.185Z,73.50
2019-03-19T21:02:44.547Z,73.60
2019-03-19T21:05:12.972Z,73.50
2019-03-19T21:07:41.346Z,73.80
2019-03-19T21:10:15.836Z,74.00
2019-03-19T21:12:44.287Z,74.00
2019-03-19T21:15:28.942Z,73.90
2019-03-19T21:17:57.263Z,73.60
2019-03-19T21:20:25.609Z,73.50
2019-03-19T21:22:54.002Z,73.00
2019-03-19T21:25:22.354Z,72.70
2019-03-19T21:27:50.644Z,72.30
2019-03-19T21:30:20.191Z,71.70
2019-03-19T21:32:48.549Z,71.20
2019-03-19T21:35:20.906Z,71.10
2019-03-19T21:37:49.447Z,71.00
2019-03-19T21:40:17.787Z,70.10
2019-03-19T21:42:46.239Z,70.50
2019-03-19T21:45:18.399Z,70.10
2019-03-19T21:47:46.680Z,69.90
2019-03-19T21:50:22.461Z,69.80
2019-03-19T21:52:50.745Z,69.40
2019-03-19T21:55:19.069Z,69.20
2019-03-19T21:57:47.350Z,69.30
2019-03-19T22:00:20.035Z,69.10
2019-03-19T22:02:48.324Z,68.90
2019-03-19T22:05:16.710Z,68.80
2019-03-19T22:07:45.055Z,68.60
2019-03-19T22:10:18.057Z,68.50
2019-03-19T22:12:48.882Z,68.40
2019-03-19T22:15:21.291Z,68.50
2019-03-19T22:17:49.590Z,68.20
2019-03-19T22:20:17.937Z,68.00
2019-03-19T22:22:46.243Z,67.90
2019-03-19T22:25:15.323Z,67.80
2019-03-19T22:27:43.881Z,67.80
2019-03-19T22:30:19.381Z,67.60
2019-03-19T22:32:47.751Z,67.50
2019-03-19T22:35:16.028Z,67.20
2019-03-19T22:37:44.329Z,67.10
2019-03-19T22:40:15.914Z,67.10
2019-03-19T22:42:44.332Z,67.10
2019-03-19T22:45:14.429Z,67.10
2019-03-19T22:47:42.704Z,66.90
2019-03-19T22:50:16.199Z,66.80
2019-03-19T22:52:44.507Z,66.80
2019-03-19T22:55:13.633Z,66.70
2019-03-19T22:57:42.085Z,66.70
2019-03-19T23:00:17.861Z,66.70
2019-03-19T23:02:46.135Z,66.70
2019-03-19T23:05:14.756Z,66.50
2019-03-19T23:07:43.087Z,66.60
2019-03-19T23:10:11.447Z,65.70
2019-03-19T23:12:40.834Z,66.40
2019-03-19T23:15:12.910Z,66.50
2019-03-19T23:17:41.351Z,66.30
2019-03-19T23:20:13.607Z,66.30
2019-03-19T23:22:42.027Z,66.30
2019-03-19T23:25:10.378Z,66.20
2019-03-19T23:27:38.737Z,66.00
2019-03-19T23:30:12.872Z,66.00
2019-03-19T23:32:41.219Z,66.00
2019-03-19T23:35:09.575Z,65.90
2019-03-19T23:37:37.943Z,65.90
2019-03-19T23:40:09.604Z,65.90
2019-03-19T23:42:38.147Z,66.70
2019-03-19T23:45:11.752Z,65.60
2019-03-19T23:47:40.028Z,65.60
2019-03-19T23:50:16.260Z,65.60
2019-03-19T23:52:44.605Z,65.60
2019-03-19T23:55:12.898Z,65.60
2019-03-19T23:57:41.253Z,65.60
